Terminal Aerodrome Forecast
Issued by NWS

Home | Current Version | Previous Version | Graphics & Text | Print | Product List | Glossary On
Versions: 1 2 3 4 5 6 7 8 9 10 11 12 13 14 15
203
FTUS43 KLSX 231435 AAA
TAFSUS
TAF AMD
KSUS 231435Z 2315/2412 12007KT P6SM -SHRA OVC050
      TEMPO 2315/2316 5SM -TSRA OVC035CB
     FM231700 13008KT P6SM OVC040
     FM232100 14012KT P6SM BKN250
     FM240300 16013KT P6SM SCT250 WS014/19045KT=

USA.gov is the U.S. government's official web portal to all federal, state and local government web resources and services.